Time;durP1;ratioP1;P1;durP2;ratioP2;P2;SDS_P1;SDS_P2;PMS_P1;PMS_P2;Temp;Humidity;BMP_temperature;BMP_pressure;BME280_temperature;BME280_humidity;BME280_pressure;Samples;Min_cycle;Max_cycle;Signal;HPM_P1;HPM_P2
2022/08/04 00:00:33;;;;;;;15.73;6.40;;;;;;;;;;5058830;28;20041;-59
2022/08/04 00:03:12;;;;;;;17.90;6.20;;;;;;;;;;5058115;28;20127;-60
2022/08/04 00:05:52;;;;;;;11.10;4.63;;;;;;;;;;5059799;28;20548;-60
2022/08/04 00:08:24;;;;;;;8.60;3.63;;;;;;;;;;5059795;28;20037;-59
2022/08/04 00:10:53;;;;;;;9.77;2.90;;;;;;;;;;5060484;28;20102;-59
2022/08/04 00:13:23;;;;;;;7.07;3.50;;;;;;;;;;5059657;28;20078;-59
2022/08/04 00:15:53;;;;;;;13.20;5.03;;;;;;;;;;5056611;28;20059;-59
2022/08/04 00:18:22;;;;;;;12.20;4.93;;;;;;;;;;5057949;28;20529;-59
2022/08/04 00:20:49;;;;;;;11.47;4.83;;;;;;;;;;5050642;28;20048;-60
2022/08/04 00:23:16;;;;;;;11.30;5.00;;;;;;;;;;5068518;28;20040;-59
2022/08/04 00:25:43;;;;;;;11.37;5.30;;;;;;;;;;5069212;28;20102;-59
2022/08/04 00:28:09;;;;;;;10.53;5.10;;;;;;;;;;5057867;28;20129;-59
2022/08/04 00:30:35;;;;;;;10.57;5.13;;;;;;;;;;5064579;28;20123;-59
2022/08/04 00:33:02;;;;;;;11.33;5.73;;;;;;;;;;5068699;28;20040;-59
2022/08/04 00:35:28;;;;;;;9.67;4.57;;;;;;;;;;5067670;28;20047;-59
2022/08/04 00:37:55;;;;;;;11.53;5.47;;;;;;;;;;5069061;28;20066;-60
2022/08/04 00:40:23;;;;;;;14.67;4.43;;;;;;;;;;5051823;28;20137;-59
2022/08/04 00:42:54;;;;;;;11.00;5.53;;;;;;;;;;5067521;28;20071;-59
2022/08/04 00:45:40;;;;;;;10.80;4.90;;;;;;;;;;5069385;28;20570;-60
2022/08/04 00:48:25;;;;;;;10.17;4.67;;;;;;;;;;5085438;28;20059;-59
2022/08/04 00:51:00;;;;;;;10.90;4.80;;;;;;;;;;5090013;28;20066;-59
2022/08/04 00:53:38;;;;;;;11.80;4.87;;;;;;;;;;5089818;28;20177;-60
2022/08/04 00:56:09;;;;;;;15.33;4.87;;;;;;;;;;5089971;28;20101;-59
2022/08/04 00:58:54;;;;;;;11.70;5.13;;;;;;;;;;5087666;28;20044;-59
2022/08/04 01:01:26;;;;;;;12.97;5.10;;;;;;;;;;5060452;28;20087;-59
2022/08/04 01:04:02;;;;;;;15.87;6.17;;;;;;;;;;5049396;28;20535;-59
2022/08/04 01:06:37;;;;;;;13.37;5.63;;;;;;;;;;5050274;28;20132;-59
2022/08/04 01:09:05;;;;;;;11.10;4.73;;;;;;;;;;5049423;28;20088;-59
2022/08/04 01:11:34;;;;;;;11.47;5.43;;;;;;;;;;5049314;28;20139;-60
2022/08/04 01:14:06;;;;;;;12.77;5.20;;;;;;;;;;5048810;28;20048;-59
2022/08/04 01:16:34;;;;;;;9.90;4.77;;;;;;;;;;5048929;28;20091;-59
2022/08/04 01:19:24;;;;;;;10.60;5.10;;;;;;;;;;5048655;28;20045;-59
2022/08/04 01:22:00;;;;;;;12.33;5.00;;;;;;;;;;5034892;28;20048;-59
2022/08/04 01:24:26;;;;;;;9.97;4.73;;;;;;;;;;5048736;28;20128;-59
2022/08/04 01:27:15;;;;;;;11.10;5.37;;;;;;;;;;5048175;28;20493;-59
2022/08/04 01:29:46;;;;;;;14.27;7.77;;;;;;;;;;5048881;28;20041;-59
2022/08/04 01:32:31;;;;;;;16.37;7.73;;;;;;;;;;5066560;28;20045;-59
2022/08/04 01:35:03;;;;;;;16.33;8.20;;;;;;;;;;5068332;28;20045;-59
2022/08/04 01:37:44;;;;;;;15.33;7.70;;;;;;;;;;5068589;28;20044;-59
2022/08/04 01:40:12;;;;;;;13.77;7.33;;;;;;;;;;5068810;28;20076;-59
2022/08/04 01:42:40;;;;;;;16.73;7.43;;;;;;;;;;5068559;28;20131;-59
2022/08/04 01:45:07;;;;;;;15.97;7.10;;;;;;;;;;5055408;28;20064;-59
2022/08/04 01:47:35;;;;;;;14.47;7.73;;;;;;;;;;5067215;28;20076;-59
2022/08/04 01:50:05;;;;;;;14.07;7.20;;;;;;;;;;5053131;28;20044;-59
2022/08/04 01:52:31;;;;;;;14.27;7.57;;;;;;;;;;5068509;28;20437;-59
2022/08/04 01:54:57;;;;;;;13.97;6.60;;;;;;;;;;5062212;28;20037;-59
2022/08/04 01:57:24;;;;;;;16.37;7.57;;;;;;;;;;5048600;28;20419;-60
2022/08/04 01:59:51;;;;;;;13.50;7.73;;;;;;;;;;5068659;28;20044;-59
2022/08/04 02:02:17;;;;;;;17.50;7.87;;;;;;;;;;5072806;28;20453;-60
2022/08/04 02:04:43;;;;;;;17.50;8.30;;;;;;;;;;5068455;28;20044;-60
2022/08/04 02:07:28;;;;;;;17.87;7.80;;;;;;;;;;5068975;28;20379;-59
2022/08/04 02:10:02;;;;;;;16.87;8.37;;;;;;;;;;5067745;28;20048;-59
2022/08/04 02:12:37;;;;;;;18.63;8.20;;;;;;;;;;5068841;28;20388;-59
2022/08/04 02:15:06;;;;;;;15.17;7.10;;;;;;;;;;5068656;28;20047;-59
2022/08/04 02:17:48;;;;;;;15.73;6.97;;;;;;;;;;5068461;28;20080;-60
2022/08/04 02:20:24;;;;;;;16.90;7.33;;;;;;;;;;5067858;28;20071;-59
2022/08/04 02:22:50;;;;;;;15.93;7.63;;;;;;;;;;5067925;28;20617;-59
2022/08/04 02:25:19;;;;;;;15.67;6.90;;;;;;;;;;5068346;28;20135;-60
2022/08/04 02:27:48;;;;;;;16.13;7.13;;;;;;;;;;5072397;28;20048;-59
2022/08/04 02:30:14;;;;;;;16.80;7.80;;;;;;;;;;5072520;28;20041;-59
2022/08/04 02:32:41;;;;;;;15.77;8.03;;;;;;;;;;5071811;28;20048;-60
2022/08/04 02:35:11;;;;;;;15.93;7.60;;;;;;;;;;5054237;28;20045;-60
2022/08/04 02:37:37;;;;;;;16.03;7.40;;;;;;;;;;5052169;28;20048;-60
2022/08/04 02:40:06;;;;;;;15.43;8.03;;;;;;;;;;5052005;28;20045;-60
2022/08/04 02:42:32;;;;;;;15.03;8.33;;;;;;;;;;5052408;28;20049;-59
2022/08/04 02:45:02;;;;;;;17.83;6.93;;;;;;;;;;5068722;28;20390;-59
2022/08/04 02:47:29;;;;;;;15.23;7.90;;;;;;;;;;5072183;28;20041;-59
2022/08/04 02:49:56;;;;;;;16.27;8.03;;;;;;;;;;5071682;28;20128;-60
2022/08/04 02:52:23;;;;;;;15.37;8.97;;;;;;;;;;5066244;28;20067;-59
2022/08/04 02:54:53;;;;;;;16.87;9.43;;;;;;;;;;5059434;28;20506;-59
2022/08/04 02:57:21;;;;;;;16.87;10.10;;;;;;;;;;5063499;28;20044;-59
2022/08/04 02:59:50;;;;;;;23.40;10.50;;;;;;;;;;5058734;28;20521;-60
2022/08/04 03:02:17;;;;;;;20.47;10.70;;;;;;;;;;5055296;28;20045;-59
2022/08/04 03:04:43;;;;;;;18.53;9.73;;;;;;;;;;5071246;28;20133;-60
2022/08/04 03:07:24;;;;;;;21.30;10.00;;;;;;;;;;5071518;28;20076;-60
2022/08/04 03:10:08;;;;;;;23.37;9.63;;;;;;;;;;5061505;28;20061;-60
2022/08/04 03:12:53;;;;;;;19.07;10.47;;;;;;;;;;5067268;28;20123;-59
2022/08/04 03:15:29;;;;;;;20.77;9.17;;;;;;;;;;5071693;28;20048;-59
2022/08/04 03:18:18;;;;;;;18.50;9.60;;;;;;;;;;5064287;28;20063;-60
2022/08/04 03:21:03;;;;;;;15.67;8.23;;;;;;;;;;5050946;28;20045;-60
2022/08/04 03:23:35;;;;;;;26.70;9.20;;;;;;;;;;5058029;28;20071;-60
2022/08/04 03:26:07;;;;;;;14.85;8.88;;;;;;;;;;5051042;28;20609;-59
2022/08/04 03:28:52;;;;;;;20.73;9.50;;;;;;;;;;5051483;28;20053;-59
2022/08/04 03:31:36;;;;;;;17.10;9.70;;;;;;;;;;5072281;28;20201;-59
2022/08/04 03:34:21;;;;;;;22.67;9.67;;;;;;;;;;5072388;28;20059;-59
2022/08/04 03:37:02;;;;;;;23.50;9.67;;;;;;;;;;5050518;28;20056;-60
2022/08/04 03:39:43;;;;;;;18.47;9.30;;;;;;;;;;5050769;28;20076;-60
2022/08/04 03:42:14;;;;;;;21.90;9.00;;;;;;;;;;5050581;28;20478;-60
2022/08/04 03:44:59;;;;;;;17.90;9.43;;;;;;;;;;5049611;28;20103;-60
2022/08/04 03:47:25;;;;;;;15.97;8.63;;;;;;;;;;5050239;28;20044;-60
2022/08/04 03:50:04;;;;;;;18.43;8.93;;;;;;;;;;5064144;28;20063;-60
2022/08/04 03:55:45;;;;;;;18.67;9.37;;;;;;;;;;5059866;28;20084;-60
2022/08/04 03:58:36;;;;;;;20.40;9.27;;;;;;;;;;5060047;28;20185;-60
2022/08/04 04:01:11;;;;;;;20.00;9.57;;;;;;;;;;5055122;28;20045;-60
2022/08/04 04:03:48;;;;;;;15.83;8.37;;;;;;;;;;5057604;28;20071;-60
2022/08/04 04:06:30;;;;;;;21.10;9.63;;;;;;;;;;5055196;28;20044;-60
2022/08/04 04:09:12;;;;;;;20.47;10.20;;;;;;;;;;5054895;28;20066;-60
2022/08/04 04:11:58;;;;;;;17.77;11.17;;;;;;;;;;5054737;28;20057;-60
2022/08/04 04:14:30;;;;;;;14.87;8.23;;;;;;;;;;5061462;28;20178;-60
2022/08/04 04:17:01;;;;;;;16.13;8.23;;;;;;;;;;5059255;28;20044;-60
2022/08/04 04:19:33;;;;;;;21.37;10.00;;;;;;;;;;5057397;28;20041;-60
2022/08/04 04:22:02;;;;;;;23.37;12.43;;;;;;;;;;5060135;28;20053;-60
2022/08/04 04:24:40;;;;;;;19.30;11.73;;;;;;;;;;5059323;28;20499;-60
2022/08/04 04:27:12;;;;;;;17.23;10.37;;;;;;;;;;5057304;28;20045;-60
2022/08/04 04:29:57;;;;;;;21.47;11.07;;;;;;;;;;5057743;28;20115;-60
2022/08/04 04:32:27;;;;;;;21.13;12.07;;;;;;;;;;5061838;28;20487;-60
2022/08/04 04:34:56;;;;;;;20.13;12.47;;;;;;;;;;5056023;28;20045;-60
2022/08/04 04:37:22;;;;;;;12.73;7.63;;;;;;;;;;5054804;28;20091;-60
2022/08/04 04:40:15;;;;;;;17.60;8.40;;;;;;;;;;5056242;28;20033;-60
2022/08/04 04:42:57;;;;;;;16.90;8.73;;;;;;;;;;5040458;28;20041;-60
2022/08/04 04:45:42;;;;;;;18.23;8.45;;;;;;;;;;5058295;28;20502;-60
2022/08/04 04:48:26;;;;;;;15.27;9.07;;;;;;;;;;5061040;28;20410;-60
2022/08/04 04:51:04;;;;;;;15.10;8.93;;;;;;;;;;5055440;28;20126;-59
2022/08/04 04:53:37;;;;;;;15.57;8.07;;;;;;;;;;5057626;28;20075;-60
2022/08/04 04:56:03;;;;;;;;;;;;;;;;;;5057776;28;20036;-60
2022/08/04 04:58:31;;;;;;;11.90;8.23;;;;;;;;;;5058474;28;19921;-60
2022/08/04 05:01:03;;;;;;;15.47;8.10;;;;;;;;;;5056040;28;20432;-61
2022/08/04 05:03:41;;;;;;;14.63;9.50;;;;;;;;;;5057530;28;20078;-60
2022/08/04 05:06:14;;;;;;;14.13;9.10;;;;;;;;;;5055271;28;20040;-60
2022/08/04 05:08:49;;;;;;;12.77;8.15;;;;;;;;;;5058942;28;20408;-60
2022/08/04 05:11:24;;;;;;;18.03;8.13;;;;;;;;;;5057585;28;20041;-60
2022/08/04 05:13:56;;;;;;;17.50;9.20;;;;;;;;;;5062406;28;20041;-60
2022/08/04 05:16:29;;;;;;;17.57;9.17;;;;;;;;;;5054949;28;20442;-60
2022/08/04 05:19:07;;;;;;;16.05;9.15;;;;;;;;;;5056153;28;20395;-60
2022/08/04 05:21:37;;;;;;;16.17;9.77;;;;;;;;;;5055198;28;20081;-61
2022/08/04 05:24:05;;;;;;;17.33;9.30;;;;;;;;;;5055349;28;20055;-60
2022/08/04 05:26:38;;;;;;;12.93;9.00;;;;;;;;;;5060196;28;20072;-60
2022/08/04 05:29:10;;;;;;;15.50;9.15;;;;;;;;;;5058314;28;20258;-61
2022/08/04 05:31:42;;;;;;;14.60;8.50;;;;;;;;;;5056083;28;20083;-60
2022/08/04 05:34:09;;;;;;;12.57;9.30;;;;;;;;;;5055746;28;20571;-60
2022/08/04 05:36:39;;;;;;;11.97;8.33;;;;;;;;;;5060567;28;20182;-60
2022/08/04 05:39:06;;;;;;;13.83;9.43;;;;;;;;;;5058209;28;20044;-60
2022/08/04 05:41:33;;;;;;;18.40;9.13;;;;;;;;;;5055454;28;20491;-60
2022/08/04 05:44:00;;;;;;;17.63;9.27;;;;;;;;;;5056183;28;20033;-61
2022/08/04 05:46:27;;;;;;;15.97;9.60;;;;;;;;;;5058422;28;20048;-60
2022/08/04 05:48:53;;;;;;;17.60;10.27;;;;;;;;;;5059965;28;20082;-60
2022/08/04 05:51:20;;;;;;;15.93;9.47;;;;;;;;;;5059186;28;20037;-61
2022/08/04 05:53:46;;;;;;;15.97;9.83;;;;;;;;;;5059428;28;20078;-60
2022/08/04 05:56:14;;;;;;;15.03;8.57;;;;;;;;;;5057332;28;20083;-61
2022/08/04 05:58:40;;;;;;;15.20;8.70;;;;;;;;;;5056877;28;20079;-60
2022/08/04 06:01:08;;;;;;;14.80;9.67;;;;;;;;;;5061316;28;20522;-60
2022/08/04 06:03:35;;;;;;;19.30;9.03;;;;;;;;;;5057946;28;20508;-60
2022/08/04 06:06:02;;;;;;;18.10;8.93;;;;;;;;;;5059981;28;20041;-61
2022/08/04 06:08:28;;;;;;;18.90;9.93;;;;;;;;;;5057165;28;20044;-60
2022/08/04 06:10:56;;;;;;;13.53;9.10;;;;;;;;;;5059730;28;20391;-60
2022/08/04 06:13:28;;;;;;;15.50;9.93;;;;;;;;;;5062052;28;20097;-60
2022/08/04 06:15:55;;;;;;;15.50;9.00;;;;;;;;;;5059216;28;20037;-60
2022/08/04 06:18:22;;;;;;;14.93;9.83;;;;;;;;;;5061991;28;20043;-60
2022/08/04 06:20:50;;;;;;;18.37;9.80;;;;;;;;;;5058496;28;20059;-60
2022/08/04 06:23:18;;;;;;;15.37;8.67;;;;;;;;;;5062995;28;20086;-60
2022/08/04 06:25:48;;;;;;;14.87;8.73;;;;;;;;;;5058212;28;20083;-60
2022/08/04 06:28:15;;;;;;;14.87;7.77;;;;;;;;;;5063983;28;20048;-60
2022/08/04 06:30:41;;;;;;;13.13;7.80;;;;;;;;;;5058100;28;20514;-61
2022/08/04 06:33:25;;;;;;;12.13;8.20;;;;;;;;;;5060804;28;20055;-61
2022/08/04 06:35:54;;;;;;;14.90;7.07;;;;;;;;;;5061566;28;20076;-60
2022/08/04 06:38:23;;;;;;;11.17;7.70;;;;;;;;;;5063927;28;20043;-60
2022/08/04 06:40:50;;;;;;;13.67;7.43;;;;;;;;;;5062861;28;20406;-60
2022/08/04 06:43:16;;;;;;;15.87;7.43;;;;;;;;;;5063791;28;20048;-60
2022/08/04 06:45:42;;;;;;;10.07;6.97;;;;;;;;;;5060730;28;20481;-60
2022/08/04 06:48:11;;;;;;;11.23;6.50;;;;;;;;;;5062300;28;20142;-60
2022/08/04 06:50:38;;;;;;;11.93;7.00;;;;;;;;;;5061190;28;20052;-60
2022/08/04 06:53:04;;;;;;;11.00;6.13;;;;;;;;;;5060962;28;20033;-60
2022/08/04 06:55:31;;;;;;;14.90;5.33;;;;;;;;;;5062184;28;20467;-60
2022/08/04 06:57:59;;;;;;;14.43;5.97;;;;;;;;;;5059848;28;20383;-61
2022/08/04 07:00:25;;;;;;;11.30;5.63;;;;;;;;;;5064034;28;20044;-60
2022/08/04 07:02:52;;;;;;;15.03;5.63;;;;;;;;;;5060410;28;20552;-60
2022/08/04 07:05:19;;;;;;;11.20;5.60;;;;;;;;;;5061528;28;20041;-60
2022/08/04 07:07:45;;;;;;;17.63;5.93;;;;;;;;;;5058563;28;20544;-60
2022/08/04 07:10:12;;;;;;;11.37;5.70;;;;;;;;;;5059367;28;20140;-61
2022/08/04 07:12:38;;;;;;;11.53;5.23;;;;;;;;;;5059937;28;20049;-60
2022/08/04 07:15:05;;;;;;;13.47;5.57;;;;;;;;;;5060962;28;20033;-60
2022/08/04 07:17:32;;;;;;;9.63;4.83;;;;;;;;;;5059937;28;20418;-60
2022/08/04 07:19:58;;;;;;;15.50;5.17;;;;;;;;;;5057481;28;20049;-61
2022/08/04 07:22:26;;;;;;;9.97;4.53;;;;;;;;;;5057721;28;20075;-60
2022/08/04 07:24:55;;;;;;;10.47;4.53;;;;;;;;;;5057269;28;20077;-61
2022/08/04 07:27:21;;;;;;;14.10;4.83;;;;;;;;;;5060153;28;20052;-60
2022/08/04 07:29:48;;;;;;;15.33;4.87;;;;;;;;;;5060297;28;20037;-60
2022/08/04 07:32:15;;;;;;;10.57;4.63;;;;;;;;;;5064129;28;20120;-61
2022/08/04 07:34:42;;;;;;;8.20;4.10;;;;;;;;;;5063805;28;20037;-60
2022/08/04 07:37:08;;;;;;;12.17;4.23;;;;;;;;;;5061730;28;20414;-60
2022/08/04 07:39:35;;;;;;;10.17;4.30;;;;;;;;;;5059066;28;20094;-60
2022/08/04 07:42:02;;;;;;;10.60;3.33;;;;;;;;;;5061489;28;20506;-60
2022/08/04 07:44:29;;;;;;;11.23;4.33;;;;;;;;;;5060173;28;20109;-61
2022/08/04 07:46:55;;;;;;;12.27;3.43;;;;;;;;;;5057462;28;20380;-62
2022/08/04 07:49:22;;;;;;;10.02;3.58;;;;;;;;;;5057816;28;20491;-61
2022/08/04 07:51:49;;;;;;;16.33;3.92;;;;;;;;;;5060698;28;20052;-62
2022/08/04 07:54:17;;;;;;;11.73;3.80;;;;;;;;;;5057401;28;20063;-61
2022/08/04 07:56:43;;;;;;;10.45;3.92;;;;;;;;;;5050498;28;20091;-61
2022/08/04 07:59:09;;;;;;;13.65;4.18;;;;;;;;;;5066012;28;20041;-61
2022/08/04 08:01:36;;;;;;;9.73;3.83;;;;;;;;;;5068765;28;20135;-61
2022/08/04 08:04:04;;;;;;;7.38;3.55;;;;;;;;;;5066393;28;20044;-61
2022/08/04 08:06:30;;;;;;;12.07;4.13;;;;;;;;;;5053467;28;20067;-61
2022/08/04 08:08:58;;;;;;;13.32;4.80;;;;;;;;;;5058344;28;20052;-61
2022/08/04 08:11:24;;;;;;;11.55;4.63;;;;;;;;;;5052564;28;20686;-62
2022/08/04 08:13:51;;;;;;;7.82;3.95;;;;;;;;;;5069695;28;20056;-61
2022/08/04 08:16:19;;;;;;;12.90;4.30;;;;;;;;;;5070256;28;20043;-62
2022/08/04 08:18:45;;;;;;;10.63;4.20;;;;;;;;;;5070450;28;20388;-62
2022/08/04 08:21:12;;;;;;;12.55;3.85;;;;;;;;;;5051529;28;20051;-61
2022/08/04 08:23:38;;;;;;;10.85;4.63;;;;;;;;;;5066129;28;20044;-61
2022/08/04 08:26:05;;;;;;;9.60;4.18;;;;;;;;;;5064362;28;20049;-61
2022/08/04 08:28:31;;;;;;;9.40;4.38;;;;;;;;;;5061383;28;20045;-61
2022/08/04 08:30:57;;;;;;;11.63;5.05;;;;;;;;;;5050153;28;20487;-61
2022/08/04 08:33:23;;;;;;;11.07;4.32;;;;;;;;;;5049679;28;20544;-62
2022/08/04 08:35:59;;;;;;;10.25;4.10;;;;;;;;;;5049753;28;20129;-61
2022/08/04 08:38:40;;;;;;;10.50;4.10;;;;;;;;;;5062936;28;20501;-62
2022/08/04 08:41:16;;;;;;;6.40;3.00;;;;;;;;;;5069442;28;20123;-61
2022/08/04 08:43:45;;;;;;;9.30;3.92;;;;;;;;;;5059675;28;20033;-61
2022/08/04 08:46:11;;;;;;;11.27;4.30;;;;;;;;;;5054657;28;20057;-61
2022/08/04 08:48:37;;;;;;;6.93;3.35;;;;;;;;;;5058873;28;20126;-62
2022/08/04 08:51:30;;;;;;;14.07;5.22;;;;;;;;;;5056973;28;20120;-61
2022/08/04 08:53:56;;;;;;;;;;;;;;;;;;5045681;28;20056;-61
2022/08/04 08:56:24;;;;;;;15.05;6.90;;;;;;;;;;5048028;28;19924;-62
2022/08/04 08:59:17;;;;;;;10.38;5.32;;;;;;;;;;5050306;28;20041;-61
2022/08/04 09:01:46;;;;;;;8.88;4.40;;;;;;;;;;5046779;28;20041;-62
2022/08/04 09:04:31;;;;;;;12.77;4.60;;;;;;;;;;5048432;28;20079;-62
2022/08/04 09:07:15;;;;;;;10.85;4.10;;;;;;;;;;5047144;28;20626;-61
2022/08/04 09:09:47;;;;;;;13.35;4.18;;;;;;;;;;5049256;28;20053;-62
2022/08/04 09:12:17;;;;;;;8.80;4.03;;;;;;;;;;5049626;28;20526;-61
2022/08/04 09:14:43;;;;;;;9.23;3.80;;;;;;;;;;5048563;28;20057;-62
2022/08/04 09:17:21;;;;;;;12.25;3.78;;;;;;;;;;5054785;28;20570;-61
2022/08/04 09:20:02;;;;;;;10.25;4.50;;;;;;;;;;5050524;28;20041;-62
2022/08/04 09:22:33;;;;;;;9.15;3.85;;;;;;;;;;5054549;28;20131;-62
2022/08/04 09:25:03;;;;;;;9.18;4.05;;;;;;;;;;5048996;28;20106;-62
2022/08/04 09:27:43;;;;;;;8.43;4.28;;;;;;;;;;5049148;28;20533;-62
2022/08/04 09:30:10;;;;;;;10.75;5.20;;;;;;;;;;5048825;28;20084;-62
2022/08/04 09:32:42;;;;;;;10.00;4.13;;;;;;;;;;5049628;28;20052;-62
2022/08/04 09:35:38;;;;;;;10.25;4.18;;;;;;;;;;5048805;28;20049;-62
2022/08/04 09:38:04;;;;;;;10.88;4.05;;;;;;;;;;5043991;28;20136;-61
2022/08/04 09:40:32;;;;;;;8.10;4.13;;;;;;;;;;5048198;28;20128;-62
2022/08/04 09:43:09;;;;;;;8.15;3.80;;;;;;;;;;5051975;28;20217;-61
2022/08/04 09:45:42;;;;;;;9.93;4.25;;;;;;;;;;5055809;28;20060;-62
2022/08/04 09:48:11;;;;;;;8.75;3.85;;;;;;;;;;5048378;28;20056;-62
2022/08/04 09:50:38;;;;;;;9.75;4.63;;;;;;;;;;5048141;28;20059;-62
2022/08/04 09:53:18;;;;;;;11.05;4.60;;;;;;;;;;5068152;28;20056;-62
2022/08/04 09:55:47;;;;;;;9.25;3.70;;;;;;;;;;5068326;28;20044;-63
2022/08/04 09:58:21;;;;;;;8.70;3.58;;;;;;;;;;5066806;28;20055;-62
2022/08/04 10:00:50;;;;;;;12.02;4.03;;;;;;;;;;5068367;28;20049;-61
2022/08/04 10:03:18;;;;;;;7.93;3.90;;;;;;;;;;5060494;28;20043;-62
2022/08/04 10:06:00;;;;;;;6.72;2.88;;;;;;;;;;5048334;28;20413;-62
2022/08/04 10:08:39;;;;;;;11.35;2.42;;;;;;;;;;5062435;28;20053;-62
2022/08/04 10:11:08;;;;;;;8.25;1.83;;;;;;;;;;5069118;28;20044;-61
2022/08/04 10:13:37;;;;;;;4.45;1.73;;;;;;;;;;5074336;28;20051;-62
2022/08/04 10:16:09;;;;;;;10.07;2.20;;;;;;;;;;5074493;28;20229;-62
2022/08/04 10:18:58;;;;;;;8.98;1.90;;;;;;;;;;5064231;28;20090;-62
2022/08/04 10:21:43;;;;;;;5.55;1.98;;;;;;;;;;5048657;28;20049;-62
2022/08/04 10:24:09;;;;;;;6.22;1.75;;;;;;;;;;5048216;28;20041;-62
2022/08/04 10:26:47;;;;;;;6.35;1.88;;;;;;;;;;5048559;28;20058;-62
2022/08/04 10:29:16;;;;;;;6.80;2.25;;;;;;;;;;5049644;28;20124;-62
2022/08/04 10:31:54;;;;;;;10.15;2.15;;;;;;;;;;5057799;28;20048;-62
2022/08/04 10:34:21;;;;;;;5.30;2.15;;;;;;;;;;5049422;28;20091;-62
2022/08/04 10:36:53;;;;;;;7.70;2.15;;;;;;;;;;5056395;28;20098;-61
2022/08/04 10:39:24;;;;;;;6.43;2.05;;;;;;;;;;5050871;28;20079;-62
2022/08/04 10:41:53;;;;;;;10.02;2.25;;;;;;;;;;5048107;28;20127;-62
2022/08/04 10:44:31;;;;;;;7.45;2.22;;;;;;;;;;5047961;28;20056;-62
2022/08/04 10:47:00;;;;;;;10.32;2.40;;;;;;;;;;5048901;28;20132;-62
2022/08/04 10:49:32;;;;;;;6.20;1.98;;;;;;;;;;5052655;28;20060;-62
2022/08/04 10:52:16;;;;;;;8.50;1.95;;;;;;;;;;5051506;28;20585;-62
2022/08/04 10:54:47;;;;;;;5.00;2.03;;;;;;;;;;5051546;28;20146;-62
2022/08/04 11:10:18;;;;;;;7.43;2.10;;;;;;;;;;5078562;27;20388;-61
2022/08/04 11:12:45;;;;;;;10.75;2.25;;;;;;;;;;5086099;28;20151;-61
2022/08/04 11:15:33;;;;;;;5.93;2.00;;;;;;;;;;5084257;28;20078;-61
2022/08/04 11:18:01;;;;;;;7.05;1.70;;;;;;;;;;5083121;28;20457;-61
2022/08/04 11:20:30;;;;;;;5.47;1.90;;;;;;;;;;5065829;28;20045;-61
2022/08/04 11:23:01;;;;;;;5.03;1.50;;;;;;;;;;5066084;28;20071;-61
2022/08/04 11:25:48;;;;;;;6.13;1.75;;;;;;;;;;5065397;28;20076;-62
2022/08/04 11:28:33;;;;;;;5.32;1.70;;;;;;;;;;5053568;28;20049;-61
2022/08/04 11:31:05;;;;;;;6.38;1.42;;;;;;;;;;5064027;28;20037;-61
2022/08/04 11:33:31;;;;;;;4.85;1.65;;;;;;;;;;5052948;28;20044;-61
2022/08/04 11:36:02;;;;;;;4.88;1.58;;;;;;;;;;5046172;28;20165;-61
2022/08/04 11:38:36;;;;;;;4.07;1.55;;;;;;;;;;5064607;28;20607;-62
2022/08/04 11:41:09;;;;;;;5.63;1.67;;;;;;;;;;5065658;28;20041;-61
2022/08/04 11:43:44;;;;;;;6.10;1.90;;;;;;;;;;5066328;28;20118;-61
2022/08/04 11:46:15;;;;;;;4.35;1.50;;;;;;;;;;5065353;28;20055;-61
2022/08/04 11:48:44;;;;;;;6.22;1.30;;;;;;;;;;5062979;28;20391;-61
2022/08/04 11:51:11;;;;;;;4.15;1.38;;;;;;;;;;5064426;28;20126;-61
2022/08/04 11:53:38;;;;;;;5.82;1.20;;;;;;;;;;5065358;28;20407;-61
2022/08/04 11:56:07;;;;;;;5.65;1.58;;;;;;;;;;5063377;28;20041;-61
2022/08/04 11:58:33;;;;;;;4.32;1.30;;;;;;;;;;5064229;28;20071;-61
2022/08/04 12:01:11;;;;;;;2.38;0.95;;;;;;;;;;5061516;28;20665;-61
2022/08/04 12:03:56;;;;;;;4.55;0.90;;;;;;;;;;5063763;28;20049;-62
2022/08/04 12:06:30;;;;;;;2.65;1.20;;;;;;;;;;5065348;28;20052;-61
2022/08/04 12:08:58;;;;;;;3.75;1.00;;;;;;;;;;5062122;28;20522;-61
2022/08/04 12:11:37;;;;;;;3.47;1.00;;;;;;;;;;5061401;28;20055;-61
2022/08/04 12:14:26;;;;;;;3.80;1.27;;;;;;;;;;5062718;28;20597;-60
2022/08/04 12:17:02;;;;;;;6.55;1.20;;;;;;;;;;5060920;28;20045;-62
2022/08/04 12:19:38;;;;;;;4.78;1.30;;;;;;;;;;5062366;28;20452;-61
2022/08/04 12:22:08;;;;;;;5.22;1.55;;;;;;;;;;5047052;28;20044;-62
2022/08/04 12:24:38;;;;;;;3.00;1.20;;;;;;;;;;5047219;28;20056;-61
2022/08/04 12:27:10;;;;;;;2.83;1.10;;;;;;;;;;5048122;28;20111;-61
2022/08/04 12:29:39;;;;;;;5.53;1.48;;;;;;;;;;5045191;28;21383;-61
2022/08/04 12:32:17;;;;;;;2.90;1.20;;;;;;;;;;5051042;28;20045;-61
2022/08/04 12:34:50;;;;;;;4.22;1.30;;;;;;;;;;5035064;28;20063;-61
2022/08/04 12:37:28;;;;;;;3.33;1.40;;;;;;;;;;5042531;28;20055;-61
2022/08/04 12:39:59;;;;;;;1.95;0.90;;;;;;;;;;5049615;28;20053;-61
2022/08/04 12:42:32;;;;;;;2.50;1.20;;;;;;;;;;5037885;28;20052;-61
2022/08/04 12:44:59;;;;;;;2.78;1.10;;;;;;;;;;5039451;28;20037;-61
2022/08/04 12:47:27;;;;;;;4.35;1.30;;;;;;;;;;5049776;28;20083;-61
2022/08/04 12:49:53;;;;;;;4.30;1.08;;;;;;;;;;5050449;28;20044;-62
2022/08/04 12:52:20;;;;;;;3.15;1.20;;;;;;;;;;5047754;28;20052;-60
2022/08/04 12:54:47;;;;;;;4.30;1.10;;;;;;;;;;5049270;28;20525;-61
2022/08/04 12:57:15;;;;;;;3.40;0.90;;;;;;;;;;5047276;28;20044;-61
2022/08/04 12:59:44;;;;;;;3.70;1.10;;;;;;;;;;5048616;28;20099;-62
2022/08/04 13:02:17;;;;;;;2.03;1.10;;;;;;;;;;5050068;28;20055;-61
2022/08/04 13:04:44;;;;;;;2.10;0.95;;;;;;;;;;5044777;28;20140;-61
2022/08/04 13:07:15;;;;;;;2.17;1.10;;;;;;;;;;5046383;28;20051;-61
2022/08/04 13:09:42;;;;;;;2.53;0.90;;;;;;;;;;5037707;28;20080;-61
2022/08/04 13:12:12;;;;;;;2.35;0.93;;;;;;;;;;5030270;28;20050;-61
2022/08/04 13:14:39;;;;;;;2.20;1.00;;;;;;;;;;5047421;28;20503;-61
2022/08/04 13:17:05;;;;;;;2.58;0.73;;;;;;;;;;5048932;28;20121;-61
2022/08/04 13:19:32;;;;;;;1.85;0.90;;;;;;;;;;5049776;28;20045;-61
2022/08/04 13:21:59;;;;;;;5.05;1.20;;;;;;;;;;5045754;28;20561;-62
2022/08/04 13:24:25;;;;;;;1.95;1.23;;;;;;;;;;5030214;28;20045;-61
2022/08/04 13:26:57;;;;;;;3.58;1.02;;;;;;;;;;5043416;28;20131;-61
2022/08/04 13:29:51;;;;;;;3.17;1.00;;;;;;;;;;5044150;28;20503;-61
2022/08/04 13:32:19;;;;;;;8.68;1.25;;;;;;;;;;5032832;28;20052;-61
2022/08/04 13:34:47;;;;;;;3.95;1.30;;;;;;;;;;5038667;28;20059;-61
2022/08/04 13:37:14;;;;;;;2.75;1.30;;;;;;;;;;5038786;28;20098;-62
2022/08/04 13:39:44;;;;;;;3.33;1.00;;;;;;;;;;5038259;28;20048;-61
2022/08/04 13:42:11;;;;;;;3.17;1.10;;;;;;;;;;5040968;28;20041;-61
2022/08/04 13:44:40;;;;;;;3.10;0.82;;;;;;;;;;5042908;28;20037;-62
2022/08/04 13:47:19;;;;;;;2.63;1.05;;;;;;;;;;5038799;28;20132;-62
2022/08/04 13:50:04;;;;;;;4.00;1.10;;;;;;;;;;5044172;28;20060;-62
2022/08/04 13:52:30;;;;;;;3.42;1.23;;;;;;;;;;5042205;28;20048;-61
2022/08/04 13:54:56;;;;;;;4.00;1.35;;;;;;;;;;5042439;28;20041;-61
2022/08/04 13:57:23;;;;;;;5.22;1.30;;;;;;;;;;5040765;28;20049;-62
2022/08/04 13:59:51;;;;;;;2.25;0.90;;;;;;;;;;5040820;28;20041;-62
2022/08/04 14:02:27;;;;;;;3.45;1.30;;;;;;;;;;5041800;28;20116;-61
2022/08/04 14:04:56;;;;;;;3.67;1.25;;;;;;;;;;5041894;28;20436;-61
2022/08/04 14:07:23;;;;;;;2.25;1.00;;;;;;;;;;5044960;28;20130;-62
2022/08/04 14:09:50;;;;;;;3.10;1.00;;;;;;;;;;5044972;28;20986;-62
2022/08/04 14:12:16;;;;;;;3.40;1.20;;;;;;;;;;5041061;28;20052;-62
2022/08/04 14:14:47;;;;;;;4.43;1.60;;;;;;;;;;5040144;28;20037;-61
2022/08/04 14:17:14;;;;;;;4.75;1.45;;;;;;;;;;5041390;28;20048;-62
2022/08/04 14:19:46;;;;;;;4.85;1.45;;;;;;;;;;5041160;28;20045;-62
2022/08/04 14:22:24;;;;;;;3.90;0.90;;;;;;;;;;5040529;28;20127;-61
2022/08/04 14:25:04;;;;;;;1.95;0.82;;;;;;;;;;5040845;28;20041;-62
2022/08/04 14:27:43;;;;;;;3.30;0.98;;;;;;;;;;5042384;28;20049;-62
2022/08/04 14:30:27;;;;;;;3.60;1.00;;;;;;;;;;5040316;28;20387;-62
2022/08/04 14:32:57;;;;;;;5.25;0.95;;;;;;;;;;5040884;28;20041;-62
2022/08/04 14:35:24;;;;;;;4.22;1.00;;;;;;;;;;5041502;28;20044;-62
2022/08/04 14:37:57;;;;;;;3.47;1.08;;;;;;;;;;5041279;28;20048;-62
2022/08/04 14:40:24;;;;;;;2.80;1.15;;;;;;;;;;5047789;28;20487;-62
2022/08/04 14:42:50;;;;;;;3.22;1.20;;;;;;;;;;5045412;28;20406;-62
2022/08/04 14:45:16;;;;;;;3.10;0.90;;;;;;;;;;5037579;28;20524;-61
2022/08/04 14:47:46;;;;;;;3.03;0.95;;;;;;;;;;5048755;28;20122;-62
2022/08/04 14:50:13;;;;;;;2.67;0.75;;;;;;;;;;5049806;28;20565;-61
2022/08/04 14:52:39;;;;;;;2.78;0.77;;;;;;;;;;5046963;28;20060;-62
2022/08/04 14:55:22;;;;;;;2.08;0.80;;;;;;;;;;5048402;28;20045;-62
2022/08/04 14:57:48;;;;;;;4.72;1.33;;;;;;;;;;5047902;28;20041;-61
2022/08/04 15:00:28;;;;;;;2.40;0.77;;;;;;;;;;5048388;28;20041;-62
2022/08/04 15:02:57;;;;;;;2.65;0.88;;;;;;;;;;5048138;28;20040;-62
2022/08/04 15:05:23;;;;;;;2.58;0.80;;;;;;;;;;5048751;28;20045;-62
2022/08/04 15:07:49;;;;;;;3.95;0.80;;;;;;;;;;5047619;28;20063;-62
2022/08/04 15:10:15;;;;;;;2.70;1.02;;;;;;;;;;5047698;28;20056;-61
2022/08/04 15:12:41;;;;;;;2.95;0.93;;;;;;;;;;5045386;28;20049;-62
2022/08/04 15:15:08;;;;;;;2.15;0.75;;;;;;;;;;5048175;28;20056;-62
2022/08/04 15:17:34;;;;;;;2.08;0.75;;;;;;;;;;5044285;28;20037;-62